BCS14T EKCH-EHAM
Flight info
| Callsign | BCS14T |
|---|---|
| Flight time | N/A |
| Altitude | 36000 |
| Route | LANGO M611 ALASA DCT WANZA N872 KUBAT T200 BLUFA |
| Aircraft | B738/M-SDE2E3FGHIRWXY/LB1 |
Departure
| Time | 2026-05-06 14:04 |
|---|---|
| Airport | Copenhagen Kastrup Airport (EKCH) |
Arrival
| Time | N/A |
|---|---|
| Airport | Amsterdam Airport Schiphol (EHAM) |
| Time | Latitude | Longitude | Altitude | Speed | Heading |
|---|---|---|---|---|---|
| 2026-05-06 13:15 | 55.61972 | 12.67085 | 16 ft | 0 kts | 79° |
| 2026-05-06 13:46 | 55.61971 | 12.67084 | 16 ft | 1 kts | 79° |
| 2026-05-06 13:46 | 55.61967 | 12.67042 | 16 ft | 4 kts | 79° |
| 2026-05-06 13:46 | 55.61962 | 12.66998 | 16 ft | 2 kts | 79° |
| 2026-05-06 13:46 | 55.61961 | 12.66960 | 16 ft | 4 kts | 115° |
| 2026-05-06 13:47 | 55.61978 | 12.66934 | 18 ft | 4 kts | 168° |
| 2026-05-06 13:47 | 55.61971 | 12.66938 | 18 ft | 4 kts | 161° |
| 2026-05-06 13:47 | 55.61964 | 12.66940 | 16 ft | 0 kts | 169° |
| 2026-05-06 13:50 | 55.61963 | 12.66940 | 16 ft | 1 kts | 169° |
| 2026-05-06 13:50 | 55.61928 | 12.66950 | 16 ft | 7 kts | 179° |
| 2026-05-06 13:50 | 55.61893 | 12.66904 | 17 ft | 6 kts | 240° |
| 2026-05-06 13:51 | 55.61881 | 12.66828 | 17 ft | 6 kts | 257° |
| 2026-05-06 13:51 | 55.61872 | 12.66753 | 16 ft | 6 kts | 259° |
| 2026-05-06 13:51 | 55.61864 | 12.66679 | 16 ft | 6 kts | 259° |
| 2026-05-06 13:51 | 55.61856 | 12.66606 | 16 ft | 6 kts | 259° |
| 2026-05-06 13:52 | 55.61848 | 12.66530 | 16 ft | 7 kts | 259° |
| 2026-05-06 13:52 | 55.61851 | 12.66417 | 16 ft | 11 kts | 300° |
| 2026-05-06 13:52 | 55.61931 | 12.66348 | 16 ft | 14 kts | 340° |
| 2026-05-06 13:52 | 55.62027 | 12.66289 | 17 ft | 14 kts | 342° |
| 2026-05-06 13:53 | 55.62115 | 12.66239 | 16 ft | 13 kts | 342° |
| 2026-05-06 13:53 | 55.62198 | 12.66178 | 15 ft | 13 kts | 336° |
| 2026-05-06 13:53 | 55.62278 | 12.66118 | 15 ft | 12 kts | 337° |
| 2026-05-06 13:54 | 55.62298 | 12.65673 | 16 ft | 0 kts | 269° |
| 2026-05-06 13:55 | 55.62298 | 12.65662 | 16 ft | 4 kts | 269° |
| 2026-05-06 13:56 | 55.62296 | 12.65564 | 16 ft | 10 kts | 268° |
| 2026-05-06 13:56 | 55.62294 | 12.65445 | 16 ft | 10 kts | 269° |
| 2026-05-06 13:56 | 55.62293 | 12.65328 | 16 ft | 9 kts | 269° |
| 2026-05-06 13:56 | 55.62276 | 12.65225 | 17 ft | 9 kts | 215° |
| 2026-05-06 13:57 | 55.62216 | 12.65188 | 16 ft | 9 kts | 201° |
| 2026-05-06 13:57 | 55.62163 | 12.65131 | 16 ft | 9 kts | 214° |
| 2026-05-06 13:57 | 55.62114 | 12.65073 | 17 ft | 6 kts | 213° |
| 2026-05-06 13:57 | 55.62109 | 12.65067 | 17 ft | 1 kts | 213° |
| 2026-05-06 13:58 | 55.62076 | 12.65028 | 17 ft | 8 kts | 213° |
| 2026-05-06 13:58 | 55.62031 | 12.64977 | 18 ft | 7 kts | 213° |
| 2026-05-06 13:58 | 55.61984 | 12.64923 | 17 ft | 10 kts | 213° |
| 2026-05-06 13:58 | 55.61910 | 12.64837 | 16 ft | 14 kts | 213° |
| 2026-05-06 13:59 | 55.61831 | 12.64746 | 16 ft | 13 kts | 213° |
| 2026-05-06 13:59 | 55.61755 | 12.64659 | 16 ft | 13 kts | 213° |
| 2026-05-06 13:59 | 55.61681 | 12.64574 | 16 ft | 13 kts | 213° |
| 2026-05-06 13:59 | 55.61609 | 12.64492 | 19 ft | 12 kts | 213° |
| 2026-05-06 14:00 | 55.61538 | 12.64412 | 16 ft | 12 kts | 213° |
| 2026-05-06 14:00 | 55.61468 | 12.64332 | 17 ft | 12 kts | 213° |
| 2026-05-06 14:00 | 55.61396 | 12.64248 | 16 ft | 13 kts | 213° |
| 2026-05-06 14:00 | 55.61323 | 12.64163 | 17 ft | 12 kts | 213° |
| 2026-05-06 14:01 | 55.61251 | 12.64080 | 17 ft | 13 kts | 213° |
| 2026-05-06 14:01 | 55.61171 | 12.63987 | 18 ft | 14 kts | 213° |
| 2026-05-06 14:01 | 55.61092 | 12.63896 | 17 ft | 13 kts | 213° |
| 2026-05-06 14:01 | 55.61016 | 12.63809 | 18 ft | 13 kts | 213° |
| 2026-05-06 14:02 | 55.60942 | 12.63724 | 16 ft | 13 kts | 213° |
| 2026-05-06 14:02 | 55.60870 | 12.63642 | 16 ft | 12 kts | 213° |
| 2026-05-06 14:02 | 55.60794 | 12.63597 | 17 ft | 12 kts | 163° |
| 2026-05-06 14:02 | 55.60734 | 12.63691 | 16 ft | 12 kts | 131° |
| 2026-05-06 14:03 | 55.60682 | 12.63796 | 17 ft | 11 kts | 131° |
| 2026-05-06 14:03 | 55.60672 | 12.63861 | 18 ft | 6 kts | 65° |
| 2026-05-06 14:03 | 55.60689 | 12.63892 | 18 ft | 0 kts | 40° |
| 2026-05-06 14:03 | 55.60692 | 12.63896 | 18 ft | 4 kts | 40° |
| 2026-05-06 14:04 | 55.60863 | 12.64160 | 17 ft | 69 kts | 41° |
| 2026-05-06 14:04 | 55.61399 | 12.64987 | 18 ft | 133 kts | 40° |
| 2026-05-06 14:04 | 55.62202 | 12.66234 | 201 ft | 168 kts | 47° |
| 2026-05-06 14:04 | 55.63082 | 12.67593 | 1006 ft | 169 kts | 45° |
| 2026-05-06 14:05 | 55.63991 | 12.69012 | 1719 ft | 181 kts | 45° |
| 2026-05-06 14:05 | 55.64979 | 12.70575 | 2290 ft | 198 kts | 46° |
| 2026-05-06 14:05 | 55.66044 | 12.72230 | 2743 ft | 212 kts | 44° |
| 2026-05-06 14:05 | 55.67217 | 12.73992 | 3166 ft | 229 kts | 43° |
| 2026-05-06 14:06 | 55.68515 | 12.75893 | 3551 ft | 251 kts | 42° |
| 2026-05-06 14:06 | 55.69828 | 12.77967 | 4380 ft | 252 kts | 53° |
| 2026-05-06 14:06 | 55.70558 | 12.80687 | 5254 ft | 251 kts | 79° |
| 2026-05-06 14:06 | 55.70480 | 12.83803 | 6008 ft | 261 kts | 105° |
| 2026-05-06 14:07 | 55.69546 | 12.86584 | 6771 ft | 270 kts | 134° |
| 2026-05-06 14:07 | 55.67941 | 12.88359 | 7533 ft | 277 kts | 156° |
| 2026-05-06 14:07 | 55.66119 | 12.89537 | 8323 ft | 280 kts | 160° |
| 2026-05-06 14:07 | 55.64263 | 12.90682 | 9115 ft | 284 kts | 161° |
| 2026-05-06 14:08 | 55.62375 | 12.91776 | 9883 ft | 288 kts | 169° |
| 2026-05-06 14:08 | 55.60362 | 12.91738 | 10345 ft | 300 kts | 195° |
| 2026-05-06 14:08 | 55.58483 | 12.89946 | 10533 ft | 320 kts | 223° |
| 2026-05-06 14:08 | 55.56874 | 12.87054 | 10725 ft | 340 kts | 227° |
| 2026-05-06 14:09 | 55.55233 | 12.83957 | 10937 ft | 359 kts | 227° |
| 2026-05-06 14:09 | 55.53493 | 12.80719 | 11413 ft | 367 kts | 227° |
| 2026-05-06 14:09 | 55.52035 | 12.77038 | 12152 ft | 366 kts | 245° |
| 2026-05-06 14:09 | 55.51322 | 12.72748 | 12908 ft | 368 kts | 263° |
| 2026-05-06 14:10 | 55.51120 | 12.68229 | 13591 ft | 372 kts | 266° |
| 2026-05-06 14:10 | 55.50980 | 12.63653 | 14279 ft | 374 kts | 267° |
| 2026-05-06 14:10 | 55.50844 | 12.59039 | 14869 ft | 380 kts | 266° |
| 2026-05-06 14:10 | 55.50693 | 12.54368 | 15495 ft | 384 kts | 266° |
| 2026-05-06 14:11 | 55.50527 | 12.49658 | 16210 ft | 386 kts | 266° |
| 2026-05-06 14:11 | 55.50353 | 12.44971 | 16780 ft | 391 kts | 266° |
| 2026-05-06 14:11 | 55.50228 | 12.41733 | 17244 ft | 392 kts | 266° |
| 2026-05-06 14:11 | 55.49978 | 12.35339 | 18048 ft | 398 kts | 265° |
| 2026-05-06 14:12 | 55.49784 | 12.30444 | 18583 ft | 402 kts | 265° |
| 2026-05-06 14:12 | 55.49426 | 12.25559 | 19147 ft | 403 kts | 254° |
| 2026-05-06 14:12 | 55.48313 | 12.21028 | 19693 ft | 406 kts | 237° |
| 2026-05-06 14:12 | 55.47227 | 12.18334 | 20071 ft | 407 kts | 233° |
| 2026-05-06 14:13 | 55.44917 | 12.13016 | 20807 ft | 411 kts | 233° |
| 2026-05-06 14:13 | 55.43752 | 12.10368 | 21149 ft | 413 kts | 233° |
| 2026-05-06 14:13 | 55.41997 | 12.06367 | 21668 ft | 415 kts | 233° |
| 2026-05-06 14:13 | 55.40236 | 12.02323 | 22209 ft | 416 kts | 233° |
| 2026-05-06 14:14 | 55.38477 | 11.98257 | 22722 ft | 419 kts | 233° |
| 2026-05-06 14:14 | 55.36142 | 11.92840 | 23371 ft | 421 kts | 233° |
| 2026-05-06 14:14 | 55.34369 | 11.88727 | 23784 ft | 424 kts | 233° |
| 2026-05-06 14:14 | 55.33162 | 11.85926 | 24061 ft | 425 kts | 233° |
| 2026-05-06 14:15 | 55.31398 | 11.81842 | 24443 ft | 427 kts | 233° |
| 2026-05-06 14:15 | 55.29600 | 11.77686 | 24812 ft | 429 kts | 233° |
| 2026-05-06 14:15 | 55.27793 | 11.73515 | 25184 ft | 431 kts | 232° |
| 2026-05-06 14:15 | 55.25973 | 11.69326 | 25548 ft | 432 kts | 232° |
| 2026-05-06 14:16 | 55.24189 | 11.65062 | 25885 ft | 435 kts | 235° |
| 2026-05-06 14:16 | 55.22512 | 11.60641 | 26202 ft | 437 kts | 237° |
| 2026-05-06 14:16 | 55.20877 | 11.56136 | 26525 ft | 440 kts | 237° |
| 2026-05-06 14:16 | 55.19243 | 11.51591 | 26846 ft | 442 kts | 237° |
| 2026-05-06 14:17 | 55.17599 | 11.47043 | 27153 ft | 444 kts | 237° |
| 2026-05-06 14:17 | 55.15933 | 11.42483 | 27455 ft | 446 kts | 236° |
| 2026-05-06 14:17 | 55.14269 | 11.37970 | 27743 ft | 448 kts | 236° |
| 2026-05-06 14:17 | 55.12577 | 11.33411 | 28168 ft | 446 kts | 236° |
| 2026-05-06 14:18 | 55.10887 | 11.28877 | 28656 ft | 444 kts | 236° |
| 2026-05-06 14:18 | 55.09206 | 11.24378 | 29115 ft | 442 kts | 236° |
| 2026-05-06 14:18 | 55.07523 | 11.19883 | 29513 ft | 442 kts | 235° |
| 2026-05-06 14:18 | 55.05837 | 11.15387 | 29913 ft | 442 kts | 235° |
| 2026-05-06 14:19 | 55.04157 | 11.10913 | 30285 ft | 441 kts | 235° |
| 2026-05-06 14:19 | 55.02478 | 11.06448 | 30689 ft | 439 kts | 235° |
| 2026-05-06 14:19 | 55.00811 | 11.02021 | 31076 ft | 437 kts | 235° |
| 2026-05-06 14:19 | 54.99143 | 10.97599 | 31443 ft | 436 kts | 235° |
| 2026-05-06 14:20 | 54.97503 | 10.93261 | 31823 ft | 434 kts | 235° |
| 2026-05-06 14:20 | 54.95844 | 10.88882 | 32178 ft | 433 kts | 234° |
| 2026-05-06 14:20 | 54.94368 | 10.84319 | 32515 ft | 435 kts | 246° |
| 2026-05-06 14:20 | 54.93496 | 10.79271 | 32896 ft | 436 kts | 252° |
| 2026-05-06 14:21 | 54.92763 | 10.74169 | 33278 ft | 434 kts | 253° |
| 2026-05-06 14:21 | 54.92044 | 10.69074 | 33607 ft | 434 kts | 253° |
| 2026-05-06 14:21 | 54.91315 | 10.63990 | 33946 ft | 433 kts | 252° |
| 2026-05-06 14:21 | 54.90574 | 10.58929 | 34235 ft | 432 kts | 252° |
| 2026-05-06 14:22 | 54.89820 | 10.53885 | 34462 ft | 432 kts | 252° |
| 2026-05-06 14:22 | 54.89065 | 10.48901 | 34667 ft | 432 kts | 252° |
| 2026-05-06 14:22 | 54.88295 | 10.43857 | 34906 ft | 432 kts | 252° |
| 2026-05-06 14:22 | 54.87522 | 10.38815 | 35167 ft | 432 kts | 252° |
| 2026-05-06 14:23 | 54.86748 | 10.33783 | 35412 ft | 432 kts | 252° |
| 2026-05-06 14:23 | 54.85971 | 10.28750 | 35633 ft | 432 kts | 252° |
| 2026-05-06 14:23 | 54.85193 | 10.23720 | 35849 ft | 432 kts | 252° |
| 2026-05-06 14:23 | 54.84410 | 10.18670 | 35893 ft | 435 kts | 252° |
| 2026-05-06 14:24 | 54.82836 | 10.08543 | 35902 ft | 433 kts | 252° |
| 2026-05-06 14:24 | 54.81235 | 9.98603 | 35905 ft | 429 kts | 249° |
| 2026-05-06 14:25 | 54.78571 | 9.89480 | 35921 ft | 423 kts | 236° |
| 2026-05-06 14:25 | 54.75397 | 9.80896 | 35916 ft | 422 kts | 236° |
| 2026-05-06 14:26 | 54.72230 | 9.72328 | 35907 ft | 424 kts | 236° |
| 2026-05-06 14:26 | 54.69060 | 9.63704 | 35907 ft | 425 kts | 236° |
| 2026-05-06 14:27 | 54.65882 | 9.55048 | 35920 ft | 427 kts | 236° |
| 2026-05-06 14:27 | 54.62710 | 9.46432 | 35902 ft | 429 kts | 236° |
| 2026-05-06 14:28 | 54.59500 | 9.37743 | 35912 ft | 430 kts | 236° |
| 2026-05-06 14:28 | 54.56278 | 9.29054 | 35904 ft | 431 kts | 236° |
| 2026-05-06 14:29 | 54.53041 | 9.20356 | 35905 ft | 431 kts | 236° |
| 2026-05-06 14:29 | 54.49819 | 9.11728 | 35907 ft | 432 kts | 236° |
| 2026-05-06 14:30 | 54.46564 | 9.03042 | 35903 ft | 432 kts | 236° |
| 2026-05-06 14:30 | 54.43300 | 8.94363 | 35892 ft | 432 kts | 236° |
| 2026-05-06 14:31 | 54.40032 | 8.85702 | 35895 ft | 432 kts | 236° |
| 2026-05-06 14:31 | 54.36758 | 8.77057 | 35900 ft | 432 kts | 236° |
| 2026-05-06 14:32 | 54.33503 | 8.68490 | 35902 ft | 432 kts | 236° |
| 2026-05-06 14:32 | 54.30219 | 8.59876 | 35895 ft | 432 kts | 236° |
| 2026-05-06 14:33 | 54.26932 | 8.51281 | 35899 ft | 431 kts | 236° |
| 2026-05-06 14:33 | 54.23636 | 8.42702 | 35901 ft | 431 kts | 235° |
| 2026-05-06 14:34 | 54.19711 | 8.35093 | 35914 ft | 430 kts | 223° |
| 2026-05-06 14:34 | 54.15322 | 8.28134 | 35897 ft | 431 kts | 223° |
| 2026-05-06 14:35 | 54.10958 | 8.21122 | 35901 ft | 431 kts | 224° |
| 2026-05-06 14:35 | 54.06607 | 8.14082 | 35905 ft | 432 kts | 224° |
| 2026-05-06 14:36 | 54.02258 | 8.07033 | 35903 ft | 432 kts | 224° |
| 2026-05-06 14:36 | 53.97927 | 8.00042 | 35902 ft | 432 kts | 223° |
| 2026-05-06 14:37 | 53.93547 | 7.93045 | 35904 ft | 433 kts | 223° |
| 2026-05-06 14:37 | 53.89156 | 7.86068 | 35904 ft | 433 kts | 223° |
| 2026-05-06 14:38 | 53.84757 | 7.79094 | 35903 ft | 433 kts | 223° |
| 2026-05-06 14:38 | 53.80382 | 7.72171 | 35907 ft | 433 kts | 223° |
| 2026-05-06 14:39 | 53.75971 | 7.65213 | 35910 ft | 434 kts | 223° |
| 2026-05-06 14:39 | 53.71560 | 7.58273 | 35911 ft | 434 kts | 223° |
| 2026-05-06 14:40 | 53.67141 | 7.51342 | 35910 ft | 434 kts | 223° |
| 2026-05-06 14:40 | 53.62716 | 7.44425 | 35910 ft | 434 kts | 223° |
| 2026-05-06 14:41 | 53.58313 | 7.37560 | 35910 ft | 434 kts | 223° |
| 2026-05-06 14:41 | 53.53875 | 7.30663 | 35912 ft | 434 kts | 223° |
| 2026-05-06 14:42 | 53.49428 | 7.23772 | 35913 ft | 435 kts | 223° |
| 2026-05-06 14:42 | 53.44978 | 7.16896 | 35913 ft | 435 kts | 223° |
| 2026-05-06 14:43 | 53.44256 | 7.15781 | 35913 ft | 435 kts | 223° |
| 2026-05-06 14:43 | 53.40345 | 7.09756 | 35911 ft | 435 kts | 223° |
| 2026-05-06 14:44 | 53.35870 | 7.02880 | 35463 ft | 442 kts | 222° |
| 2026-05-06 14:44 | 53.33596 | 6.99407 | 34853 ft | 440 kts | 221° |
| 2026-05-06 14:45 | 53.28873 | 6.92909 | 33422 ft | 440 kts | 218° |
| 2026-05-06 14:45 | 53.26474 | 6.89746 | 32621 ft | 440 kts | 218° |
| 2026-05-06 14:45 | 53.24072 | 6.86590 | 31876 ft | 439 kts | 217° |
| 2026-05-06 14:45 | 53.21702 | 6.83468 | 31090 ft | 440 kts | 217° |
| 2026-05-06 14:46 | 53.19302 | 6.80295 | 30303 ft | 441 kts | 217° |
| 2026-05-06 14:46 | 53.16902 | 6.77115 | 29404 ft | 442 kts | 218° |
| 2026-05-06 14:46 | 53.14493 | 6.73920 | 28482 ft | 442 kts | 218° |
| 2026-05-06 14:46 | 53.12084 | 6.70725 | 27625 ft | 442 kts | 218° |
| 2026-05-06 14:47 | 53.09702 | 6.67571 | 27007 ft | 434 kts | 218° |
| 2026-05-06 14:47 | 53.07351 | 6.64462 | 26374 ft | 429 kts | 218° |
| 2026-05-06 14:47 | 53.05020 | 6.61383 | 25733 ft | 430 kts | 218° |
| 2026-05-06 14:47 | 53.02660 | 6.58272 | 25096 ft | 433 kts | 219° |
| 2026-05-06 14:48 | 53.00343 | 6.55221 | 24462 ft | 428 kts | 219° |
| 2026-05-06 14:48 | 52.98018 | 6.52165 | 23833 ft | 424 kts | 219° |
| 2026-05-06 14:48 | 52.95718 | 6.49146 | 23158 ft | 420 kts | 219° |
| 2026-05-06 14:48 | 52.93435 | 6.46152 | 22458 ft | 416 kts | 219° |
| 2026-05-06 14:49 | 52.91181 | 6.43200 | 21841 ft | 410 kts | 219° |
| 2026-05-06 14:49 | 52.88951 | 6.40282 | 21212 ft | 407 kts | 219° |
| 2026-05-06 14:49 | 52.86734 | 6.37388 | 20590 ft | 405 kts | 219° |
| 2026-05-06 14:49 | 52.84533 | 6.34514 | 19979 ft | 402 kts | 219° |
| 2026-05-06 14:50 | 52.82589 | 6.31223 | 19354 ft | 400 kts | 234° |
| 2026-05-06 14:50 | 52.81050 | 6.27436 | 18792 ft | 395 kts | 236° |
| 2026-05-06 14:50 | 52.79539 | 6.23739 | 18207 ft | 393 kts | 236° |
| 2026-05-06 14:50 | 52.78001 | 6.20027 | 17537 ft | 391 kts | 235° |
| 2026-05-06 14:51 | 52.76460 | 6.16341 | 16898 ft | 389 kts | 236° |
| 2026-05-06 14:51 | 52.74923 | 6.12687 | 16303 ft | 386 kts | 236° |
| 2026-05-06 14:51 | 52.73396 | 6.09071 | 15710 ft | 383 kts | 236° |
| 2026-05-06 14:51 | 52.71878 | 6.05483 | 15134 ft | 380 kts | 236° |
| 2026-05-06 14:52 | 52.70366 | 6.01915 | 14554 ft | 378 kts | 236° |
| 2026-05-06 14:52 | 52.68997 | 5.98686 | 14034 ft | 377 kts | 237° |
| 2026-05-06 14:52 | 52.67519 | 5.95206 | 13443 ft | 374 kts | 237° |
| 2026-05-06 14:52 | 52.66030 | 5.91707 | 12817 ft | 372 kts | 236° |
| 2026-05-06 14:53 | 52.64554 | 5.88242 | 12242 ft | 368 kts | 236° |
| 2026-05-06 14:53 | 52.63090 | 5.84807 | 11676 ft | 365 kts | 236° |
| 2026-05-06 14:53 | 52.61637 | 5.81407 | 11119 ft | 362 kts | 236° |
| 2026-05-06 14:53 | 52.60199 | 5.78045 | 10815 ft | 352 kts | 236° |
| 2026-05-06 14:54 | 52.58817 | 5.74816 | 10669 ft | 339 kts | 236° |
| 2026-05-06 14:54 | 52.57482 | 5.71702 | 10524 ft | 327 kts | 236° |
| 2026-05-06 14:54 | 52.56196 | 5.68705 | 10390 ft | 316 kts | 235° |
| 2026-05-06 14:54 | 52.54949 | 5.65799 | 10256 ft | 306 kts | 236° |
| 2026-05-06 14:55 | 52.53757 | 5.63029 | 10135 ft | 296 kts | 235° |
| 2026-05-06 14:55 | 52.52585 | 5.60309 | 10011 ft | 288 kts | 235° |
| 2026-05-06 14:55 | 52.51447 | 5.57666 | 9890 ft | 279 kts | 236° |
| 2026-05-06 14:55 | 52.50555 | 5.54897 | 9783 ft | 272 kts | 249° |
| 2026-05-06 14:56 | 52.49909 | 5.52001 | 9685 ft | 270 kts | 251° |
| 2026-05-06 14:56 | 52.49312 | 5.49074 | 9581 ft | 272 kts | 252° |
| 2026-05-06 14:56 | 52.48710 | 5.46112 | 9474 ft | 276 kts | 252° |
| 2026-05-06 14:56 | 52.48092 | 5.43114 | 9354 ft | 278 kts | 251° |
| 2026-05-06 14:57 | 52.47474 | 5.40156 | 9236 ft | 277 kts | 251° |
| 2026-05-06 14:57 | 52.46844 | 5.37182 | 9115 ft | 276 kts | 251° |
| 2026-05-06 14:57 | 52.46257 | 5.34433 | 9018 ft | 275 kts | 251° |
| 2026-05-06 14:57 | 52.45632 | 5.31522 | 8913 ft | 275 kts | 251° |
| 2026-05-06 14:58 | 52.44995 | 5.28570 | 8794 ft | 274 kts | 251° |
| 2026-05-06 14:58 | 52.44358 | 5.25625 | 8685 ft | 274 kts | 251° |
| 2026-05-06 14:58 | 52.43721 | 5.22692 | 8579 ft | 273 kts | 251° |
| 2026-05-06 14:58 | 52.43084 | 5.19766 | 8467 ft | 273 kts | 251° |
| 2026-05-06 14:59 | 52.42454 | 5.16878 | 8365 ft | 272 kts | 251° |
| 2026-05-06 14:59 | 52.41905 | 5.14363 | 8269 ft | 272 kts | 251° |
| 2026-05-06 14:59 | 52.41266 | 5.11443 | 8178 ft | 273 kts | 251° |
| 2026-05-06 14:59 | 52.40622 | 5.08507 | 8067 ft | 274 kts | 251° |
| 2026-05-06 15:00 | 52.39979 | 5.05577 | 7954 ft | 275 kts | 251° |
| 2026-05-06 15:00 | 52.39331 | 5.02625 | 7841 ft | 276 kts | 251° |
| 2026-05-06 15:00 | 52.38680 | 4.99663 | 7718 ft | 277 kts | 251° |
| 2026-05-06 15:00 | 52.38025 | 4.96692 | 7603 ft | 278 kts | 251° |
| 2026-05-06 15:01 | 52.37370 | 4.93722 | 7496 ft | 278 kts | 251° |
| 2026-05-06 15:01 | 52.36712 | 4.90743 | 7379 ft | 278 kts | 251° |
| 2026-05-06 15:01 | 52.36061 | 4.87806 | 7272 ft | 278 kts | 251° |
| 2026-05-06 15:01 | 52.35403 | 4.84840 | 7173 ft | 275 kts | 251° |
| 2026-05-06 15:02 | 52.34565 | 4.82086 | 7023 ft | 269 kts | 230° |